createdAt,value
2022-09-24T00:02:48.199Z,25.3
2022-09-24T00:08:09.885Z,25.2
2022-09-24T00:13:47.382Z,25.1
2022-09-24T00:19:24.064Z,25.1
2022-09-24T00:25:00.732Z,25.1
2022-09-24T00:30:38.112Z,25.1
2022-09-24T00:36:16.038Z,25.1
2022-09-24T00:41:54.043Z,25.1
2022-09-24T00:46:59.859Z,25.1
2022-09-24T00:52:21.622Z,25.1
2022-09-24T00:57:28.021Z,25
2022-09-24T01:02:50.659Z,25.1
2022-09-24T01:08:13.004Z,25.1
2022-09-24T01:13:18.531Z,25
2022-09-24T01:18:41.414Z,25
2022-09-24T01:24:05.695Z,25
2022-09-24T01:29:26.758Z,24.9
2022-09-24T01:34:50.923Z,24.9
2022-09-24T01:40:13.136Z,24.9
2022-09-24T01:45:19.124Z,24.9
2022-09-24T01:50:43.268Z,24.9
2022-09-24T01:56:05.576Z,24.9
2022-09-24T02:01:27.871Z,24.9
2022-09-24T02:06:34.378Z,24.8
2022-09-24T02:11:41.234Z,24.8
2022-09-24T02:17:18.268Z,24.8
2022-09-24T02:22:40.205Z,24.8
2022-09-24T02:28:02.819Z,24.8
2022-09-24T02:33:40.622Z,24.8
2022-09-24T02:39:02.427Z,24.8
2022-09-24T02:50:02.211Z,24.8
2022-09-24T02:55:39.386Z,24.8
2022-09-24T03:01:01.569Z,24.7
2022-09-24T03:06:40.095Z,24.7
2022-09-24T03:12:06.998Z,24.7
2022-09-24T03:17:28.928Z,24.7
2022-09-24T03:23:05.419Z,24.6
2022-09-24T03:28:11.366Z,24.6
2022-09-24T03:33:33.956Z,24.6
2022-09-24T03:38:55.674Z,24.6
2022-09-24T03:44:16.914Z,24.6
2022-09-24T03:49:38.504Z,24.6
2022-09-24T03:55:00.469Z,24.6
2022-09-24T04:00:21.664Z,24.5
2022-09-24T04:05:32.713Z,24.5
2022-09-24T04:11:13.089Z,24.5
2022-09-24T04:16:34.649Z,24.5
2022-09-24T04:22:12.217Z,24.5
2022-09-24T04:27:49.101Z,24.4
2022-09-24T04:33:10.826Z,24.4
2022-09-24T04:38:49.207Z,24.4
2022-09-24T04:44:26.952Z,24.4
2022-09-24T04:50:04.981Z,24.2
2022-09-24T04:55:33.369Z,23.9
2022-09-24T05:01:11.285Z,23.7
2022-09-24T05:06:55.336Z,23.6
2022-09-24T05:12:37.979Z,23.5
2022-09-24T05:18:01.487Z,23.4
2022-09-24T05:23:23.548Z,23.4
2022-09-24T05:28:45.613Z,23.4
2022-09-24T05:34:23.693Z,23.3
2022-09-24T05:39:51.016Z,23.3
2022-09-24T05:45:14.547Z,23.3
2022-09-24T05:50:52.428Z,23.2
2022-09-24T05:56:04.407Z,23.2
2022-09-24T06:01:27.612Z,23.1
2022-09-24T06:06:39.110Z,22.9
2022-09-24T06:12:01.766Z,22.8
2022-09-24T06:17:09.532Z,22.7
2022-09-24T06:22:31.946Z,22.6
2022-09-24T06:27:54.314Z,22.4
2022-09-24T06:33:05.523Z,22.4
2022-09-24T06:38:28.315Z,21.3
2022-09-24T06:43:35.761Z,42.7
2022-09-24T06:48:58.098Z,41.1
2022-09-24T06:54:39.039Z,36.6
2022-09-24T07:00:03.621Z,40.8
2022-09-24T07:05:26.628Z,43.3
2022-09-24T07:11:04.449Z,40.8
2022-09-24T07:16:42.335Z,40
2022-09-24T07:22:22.928Z,45.3
2022-09-24T07:28:00.992Z,41.3
2022-09-24T07:33:38.446Z,42.7
2022-09-24T07:39:00.769Z,43.2
2022-09-24T07:44:38.978Z,44.2
2022-09-24T07:50:06.180Z,45.3
2022-09-24T07:55:28.387Z,46.1
2022-09-24T08:00:50.653Z,47
2022-09-24T08:06:28.845Z,47.9
2022-09-24T08:11:38.153Z,48.8
2022-09-24T08:17:16.775Z,49.6
2022-09-24T08:22:54.212Z,50.4
2022-09-24T08:28:31.730Z,51.3
2022-09-24T08:34:09.186Z,52.1
2022-09-24T08:39:50.701Z,52.8
2022-09-24T08:45:29.291Z,53.6
2022-09-24T08:51:07.445Z,54.1
2022-09-24T08:56:29.948Z,54.1
2022-09-24T09:02:10.154Z,54.8
2022-09-24T09:07:51.092Z,55.4
2022-09-24T09:14:11.155Z,56.2
2022-09-24T09:19:37.692Z,56.8
2022-09-24T09:25:20.146Z,57.3
2022-09-24T09:35:57.457Z,58.3
2022-09-24T09:41:25.453Z,58.7
2022-09-24T09:46:51.825Z,59.1
2022-09-24T09:52:14.382Z,59.2
2022-09-24T09:57:36.073Z,58.8
2022-09-24T10:02:59.017Z,58.6
2022-09-24T10:08:43.392Z,58.1
2022-09-24T10:14:21.221Z,57.6
2022-09-24T10:20:01.186Z,56.2
2022-09-24T10:25:44.122Z,56
2022-09-24T10:30:50.583Z,55.6
2022-09-24T10:35:57.589Z,56.1
2022-09-24T10:41:10.051Z,56.7
2022-09-24T10:46:16.773Z,57.3
2022-09-24T10:51:45.289Z,57.8
2022-09-24T11:01:59.829Z,57.9
2022-09-24T11:07:39.087Z,58.4
2022-09-24T11:13:19.146Z,58.7
2022-09-24T11:18:57.043Z,58.8
2022-09-24T11:24:03.757Z,58.9
2022-09-24T11:29:42.113Z,59.1
2022-09-24T11:35:09.056Z,59.2
2022-09-24T11:40:46.336Z,59.3
2022-09-24T11:46:24.824Z,57.4
2022-09-24T11:52:05.807Z,58.9
2022-09-24T11:57:30.619Z,59.1
2022-09-24T12:02:53.139Z,58.4
2022-09-24T12:08:30.695Z,58.8
2022-09-24T12:13:52.312Z,58.3
2022-09-24T12:19:15.047Z,58.8
2022-09-24T12:24:22.561Z,55
2022-09-24T12:29:45.277Z,49.1
2022-09-24T12:35:12.306Z,44.3
2022-09-24T12:40:40.149Z,41.6
2022-09-24T12:46:23.388Z,62.3
2022-09-24T12:51:45.810Z,54.9
2022-09-24T12:57:07.519Z,53.7
2022-09-24T13:02:48.845Z,48.3
2022-09-24T13:08:31.445Z,59.6
2022-09-24T13:13:57.808Z,54.1
2022-09-24T13:19:39.117Z,51.4
2022-09-24T13:25:21.850Z,47.8
2022-09-24T13:31:05.975Z,44.9
2022-09-24T13:36:45.499Z,56.4
2022-09-24T13:42:23.596Z,53.6
2022-09-24T13:48:01.998Z,51.4
2022-09-24T13:53:39.505Z,47.1
2022-09-24T13:59:17.096Z,43.9
2022-09-24T14:04:55.885Z,42.4
2022-09-24T14:10:17.907Z,42.1
2022-09-24T14:15:09.442Z,42.1
2022-09-24T14:20:48.278Z,42
2022-09-24T14:26:10.498Z,42.3
2022-09-24T14:31:50.567Z,42.7
2022-09-24T14:37:31.159Z,42.9
2022-09-24T14:42:54.158Z,42.6
2022-09-24T14:48:32.273Z,42.1
2022-09-24T14:54:10.315Z,41.3
2022-09-24T14:59:35.534Z,40.4
2022-09-24T15:05:18.414Z,39.5
2022-09-24T15:10:55.948Z,38.3
2022-09-24T15:16:34.320Z,36.9
2022-09-24T15:22:12.353Z,35.4
2022-09-24T15:27:53.253Z,33.9
2022-09-24T15:33:30.704Z,32.4
2022-09-24T15:38:53.611Z,31.1
2022-09-24T15:44:16.354Z,30.4
2022-09-24T15:49:40.643Z,29.9
2022-09-24T15:55:25.808Z,29.6
2022-09-24T16:00:53.314Z,29.4
2022-09-24T16:06:16.676Z,29.1
2022-09-24T16:11:58.638Z,28.9
2022-09-24T16:17:24.159Z,28.7
2022-09-24T16:22:36.735Z,28.5
2022-09-24T16:28:15.236Z,28.3
2022-09-24T16:33:53.262Z,28.1
2022-09-24T16:39:30.544Z,27.9
2022-09-24T16:45:09.207Z,27.9
2022-09-24T16:50:36.241Z,27.7
2022-09-24T16:55:17.467Z,27.6
2022-09-24T17:00:39.820Z,27.6
2022-09-24T17:06:23.154Z,27.4
2022-09-24T17:12:07.742Z,27.4
2022-09-24T17:17:30.626Z,27.3
2022-09-24T17:23:12.009Z,27.3
2022-09-24T17:28:53.783Z,27.4
2022-09-24T17:34:48.715Z,27.6
2022-09-24T17:40:27.138Z,27.7
2022-09-24T17:45:49.364Z,27.8
2022-09-24T17:51:17.385Z,27.6
2022-09-24T17:56:40.508Z,27.7
2022-09-24T18:07:41.542Z,27.9
2022-09-24T18:13:08.683Z,28
2022-09-24T18:18:47.204Z,28.1
2022-09-24T18:24:10.496Z,28.1
2022-09-24T18:29:16.562Z,28
2022-09-24T18:34:54.885Z,27.9
2022-09-24T18:40:17.531Z,27.9
2022-09-24T18:45:55.837Z,27.8
2022-09-24T18:51:18.868Z,27.7
2022-09-24T18:56:41.083Z,27.6
2022-09-24T19:02:05.318Z,27.4
2022-09-24T19:07:44.103Z,26.6
2022-09-24T19:13:26.092Z,26.1
2022-09-24T19:18:48.879Z,25.6
2022-09-24T19:24:15.765Z,25.3
2022-09-24T19:29:23.036Z,25
2022-09-24T19:34:30.466Z,24.8
2022-09-24T19:39:53.629Z,24.6
2022-09-24T19:44:46.276Z,24.5
2022-09-24T19:49:52.607Z,24.4
2022-09-24T19:55:04.097Z,24.3
2022-09-24T20:00:30.750Z,24.2
2022-09-24T20:05:53.933Z,24.1
2022-09-24T20:11:06.487Z,24
2022-09-24T20:15:58.007Z,23.9
2022-09-24T20:21:19.880Z,23.9
2022-09-24T20:26:14.562Z,23.8
2022-09-24T20:31:07.962Z,23.7
2022-09-24T20:36:33.779Z,23.7
2022-09-24T20:41:54.895Z,23.6
2022-09-24T20:47:23.811Z,23.6
2022-09-24T20:52:32.111Z,23.6
2022-09-24T20:57:54.540Z,23.5
2022-09-24T21:03:43.730Z,23.5
2022-09-24T21:09:22.455Z,23.4
2022-09-24T21:15:02.041Z,23.4
2022-09-24T21:21:13.829Z,23.4
2022-09-24T21:27:17.092Z,23.4
2022-09-24T21:32:40.123Z,23.3
2022-09-24T21:38:17.856Z,23.3
2022-09-24T21:43:55.858Z,23.3
2022-09-24T21:49:17.375Z,23.3
2022-09-24T21:54:24.196Z,23.3
2022-09-24T21:59:30.345Z,23.3
2022-09-24T22:05:08.456Z,23.3
2022-09-24T22:10:30.223Z,23.2
2022-09-24T22:16:07.208Z,23.2
2022-09-24T22:21:45.626Z,23.2
2022-09-24T22:26:51.187Z,23.1
2022-09-24T22:32:05.824Z,23.1
2022-09-24T22:37:29.657Z,23.1
2022-09-24T22:43:10.461Z,23.1
2022-09-24T22:48:34.417Z,23.1
2022-09-24T22:54:14.183Z,23.1
2022-09-24T22:59:53.123Z,23.1
2022-09-24T23:05:38.631Z,23.1
2022-09-24T23:11:00.810Z,23
2022-09-24T23:16:38.969Z,23
2022-09-24T23:22:01.470Z,23
2022-09-24T23:27:40.287Z,23
2022-09-24T23:33:18.117Z,22.9
2022-09-24T23:38:55.322Z,22.9
2022-09-24T23:44:16.844Z,23
2022-09-24T23:49:54.652Z,22.9
2022-09-24T23:55:01.313Z,22.9
